Terminal Aerodrome Forecast
Issued by NWS Jackson, MS

Home | Current Version | Previous Version | Text Only | Print | Product List | Glossary On
Versions: 1 2 3 4 5 6 7 8 9 10 11 12
000
FTUS44 KJAN 281100
TAFGLH
TAF
KGLH 281140Z 2812/2912 36014KT P6SM -RA OVC008
     FM281600 36011KT 6SM -RA BR BKN008 OVC020
     FM290100 01007KT P6SM BKN012 OVC040=

USA.gov is the U.S. government's official web portal to all federal, state and local government web resources and services.